createdAt,value
2023-01-13T00:01:52.237Z,99300.13
2023-01-13T00:04:19.210Z,99303.47
2023-01-13T00:06:46.150Z,99306.00
2023-01-13T00:09:13.068Z,99302.78
2023-01-13T00:11:40.083Z,99307.09
2023-01-13T00:14:08.494Z,99301.22
2023-01-13T00:16:38.780Z,99299.63
2023-01-13T00:19:06.135Z,99301.22
2023-01-13T00:21:33.092Z,99297.22
2023-01-13T00:24:00.001Z,99290.38
2023-01-13T00:26:30.641Z,99295.47
2023-01-13T00:28:59.241Z,99293.72
2023-01-13T00:31:28.981Z,99298.00
2023-01-13T00:33:56.850Z,99299.63
2023-01-13T00:36:23.804Z,99300.41
2023-01-13T00:38:50.711Z,99298.81
2023-01-13T00:41:19.153Z,99288.00
2023-01-13T00:43:47.261Z,99289.75
2023-01-13T00:46:16.678Z,99299.88
2023-01-13T00:48:45.239Z,99299.09
2023-01-13T00:51:13.861Z,99301.63
2023-01-13T00:53:43.322Z,99294.97
2023-01-13T00:56:16.891Z,99304.16
2023-01-13T00:58:46.212Z,99294.00
2023-01-13T01:01:16.066Z,99298.00
2023-01-13T01:03:43.236Z,99294.53
2023-01-13T01:06:14.049Z,99298.00
2023-01-13T01:08:41.660Z,99288.13
2023-01-13T01:11:11.586Z,99290.03
2023-01-13T01:13:38.790Z,99292.56
2023-01-13T01:16:09.395Z,99290.03
2023-01-13T01:18:37.569Z,99284.94
2023-01-13T01:21:05.470Z,99282.56
2023-01-13T01:23:35.167Z,99280.16
2023-01-13T01:26:03.539Z,99276.94
2023-01-13T01:28:30.538Z,99267.75
2023-01-13T01:31:00.583Z,99276.94
2023-01-13T01:33:28.143Z,99268.56
2023-01-13T01:35:55.129Z,99266.66
2023-01-13T01:38:23.526Z,99268.16
2023-01-13T01:40:51.829Z,99265.47
2023-01-13T01:43:39.773Z,99263.84
2023-01-13T01:46:07.101Z,99262.28
2023-01-13T01:48:42.451Z,99263.09
2023-01-13T01:51:10.746Z,99259.47
2023-01-13T01:53:37.871Z,99260.69
2023-01-13T01:56:08.197Z,99254.81
2023-01-13T01:58:41.797Z,99258.16
2023-01-13T02:01:09.295Z,99254.66
2023-01-13T02:03:40.159Z,99255.34
2023-01-13T02:06:08.353Z,99259.59
2023-01-13T02:08:37.505Z,99259.59
2023-01-13T02:11:06.089Z,99254.53
2023-01-13T02:13:33.341Z,99255.16
2023-01-13T02:16:08.561Z,99268.53
2023-01-13T02:18:44.590Z,99257.44
2023-01-13T02:21:34.877Z,99253.97
2023-01-13T02:24:52.985Z,99259.03
2023-01-13T02:27:53.003Z,99253.44
2023-01-13T02:30:49.581Z,99255.16
2023-01-13T02:33:27.945Z,99255.97
2023-01-13T02:36:01.755Z,99255.34
2023-01-13T02:38:32.927Z,99256.13
2023-01-13T02:41:25.617Z,99256.94
2023-01-13T02:44:10.451Z,99261.03
2023-01-13T02:46:46.833Z,99259.97
2023-01-13T02:49:23.646Z,99258.50
2023-01-13T02:51:53.142Z,99265.03
2023-01-13T02:54:24.447Z,99257.44
2023-01-13T02:56:54.441Z,99260.09
2023-01-13T02:59:22.451Z,99265.97
2023-01-13T03:01:51.425Z,99259.97
2023-01-13T03:04:48.165Z,99263.31
2023-01-13T03:07:36.389Z,99270.25
2023-01-13T03:10:10.428Z,99263.59
2023-01-13T03:12:47.415Z,99273.88
2023-01-13T03:15:22.205Z,99273.88
2023-01-13T03:18:01.940Z,99272.91
2023-01-13T03:20:33.584Z,99275.44
2023-01-13T03:23:07.647Z,99272.91
2023-01-13T03:25:40.279Z,99274.53
2023-01-13T03:28:12.167Z,99273.72
2023-01-13T03:30:43.244Z,99272.91
2023-01-13T03:33:16.883Z,99274.66
2023-01-13T03:35:46.067Z,99269.75
2023-01-13T03:38:17.476Z,99269.06
2023-01-13T03:40:49.507Z,99270.81
2023-01-13T03:43:40.369Z,99269.34
2023-01-13T03:46:14.062Z,99272.69
2023-01-13T03:48:45.830Z,99279.47
2023-01-13T03:51:17.839Z,99279.34
2023-01-13T03:53:53.903Z,99281.75
2023-01-13T03:56:26.832Z,99285.22
2023-01-13T03:58:54.444Z,99286.03
2023-01-13T04:01:25.529Z,99275.09
2023-01-13T04:03:59.112Z,99284.41
2023-01-13T04:06:32.715Z,99283.63
2023-01-13T04:09:08.326Z,99292.03
2023-01-13T04:11:39.887Z,99279.34
2023-01-13T04:14:12.640Z,99280.97
2023-01-13T04:16:40.307Z,99279.06
2023-01-13T04:19:10.667Z,99284.94
2023-01-13T04:21:37.632Z,99289.22
2023-01-13T04:24:05.217Z,99284.81
2023-01-13T04:26:32.149Z,99286.53
2023-01-13T04:28:59.042Z,99286.53
2023-01-13T04:31:26.005Z,99290.66
2023-01-13T04:33:52.993Z,99285.50
2023-01-13T04:36:25.190Z,99289.25
2023-01-13T04:38:52.430Z,99284.47
2023-01-13T04:41:19.362Z,99283.81
2023-01-13T04:43:46.339Z,99291.25
2023-01-13T04:46:13.507Z,99284.47
2023-01-13T04:48:40.484Z,99290.34
2023-01-13T04:51:07.425Z,99287.66
2023-01-13T04:53:38.104Z,99287.53
2023-01-13T04:56:05.677Z,99291.78
2023-01-13T04:58:32.585Z,99294.31
2023-01-13T05:00:59.572Z,99296.72
2023-01-13T05:03:26.869Z,99303.38
2023-01-13T05:05:53.796Z,99300.06
2023-01-13T05:08:20.728Z,99296.72
2023-01-13T05:10:49.209Z,99307.69
2023-01-13T05:13:34.535Z,99306.72
2023-01-13T05:16:20.418Z,99312.44
2023-01-13T05:18:47.407Z,99313.25
2023-01-13T05:21:34.454Z,99306.59
2023-01-13T05:24:20.192Z,99314.06
2023-01-13T05:26:48.343Z,99314.19
2023-01-13T05:29:15.314Z,99308.59
2023-01-13T05:31:42.225Z,99312.88
2023-01-13T05:34:09.176Z,99316.19
2023-01-13T05:36:36.070Z,99312.06
2023-01-13T05:39:03.095Z,99311.94
2023-01-13T05:41:48.408Z,99306.31
2023-01-13T05:44:16.877Z,99319.56
2023-01-13T05:46:43.846Z,99321.69
2023-01-13T05:49:10.744Z,99325.19
2023-01-13T05:51:37.751Z,99321.97
2023-01-13T05:54:04.780Z,99329.56
2023-01-13T05:56:31.717Z,99330.13
2023-01-13T05:58:58.663Z,99322.88
2023-01-13T06:01:27.102Z,99327.69
2023-01-13T06:03:54.095Z,99330.91
2023-01-13T06:06:21.013Z,99332.34
2023-01-13T06:08:47.973Z,99325.97
2023-01-13T06:11:15.106Z,99327.56
2023-01-13T06:13:42.091Z,99328.50
2023-01-13T06:16:09.660Z,99322.88
2023-01-13T06:18:38.064Z,99336.50
2023-01-13T06:21:05.309Z,99333.03
2023-01-13T06:23:35.231Z,99337.81
2023-01-13T06:26:10.098Z,99342.50
2023-01-13T06:28:37.098Z,99344.22
2023-01-13T06:31:10.273Z,99351.03
2023-01-13T06:33:43.087Z,99347.56
2023-01-13T06:36:13.916Z,99348.50
2023-01-13T06:38:43.584Z,99345.16
2023-01-13T06:41:10.691Z,99345.16
2023-01-13T06:43:38.633Z,99346.63
2023-01-13T06:46:06.001Z,99350.91
2023-01-13T06:48:35.691Z,99346.63
2023-01-13T06:51:05.474Z,99344.22
2023-01-13T06:53:32.478Z,99347.28
2023-01-13T06:55:59.405Z,99341.81
2023-01-13T06:58:26.560Z,99348.19
2023-01-13T07:00:53.717Z,99343.63
2023-01-13T07:03:20.847Z,99346.84
2023-01-13T07:05:52.661Z,99354.03
2023-01-13T07:08:21.361Z,99352.28
2023-01-13T07:10:48.303Z,99366.72
2023-01-13T07:13:33.743Z,99363.09
2023-01-13T07:16:02.872Z,99367.09
2023-01-13T07:18:32.053Z,99372.97
2023-01-13T07:21:00.505Z,99373.34
2023-01-13T07:23:29.944Z,99375.75
2023-01-13T07:25:57.824Z,99378.00
2023-01-13T07:28:24.969Z,99387.88
2023-01-13T07:30:52.244Z,99385.22
2023-01-13T07:33:19.427Z,99388.44
2023-01-13T07:35:48.117Z,99385.72
2023-01-13T07:38:15.421Z,99387.34
2023-01-13T07:40:43.753Z,99384.00
2023-01-13T07:43:30.738Z,99378.91
2023-01-13T07:45:58.782Z,99387.34
2023-01-13T07:48:26.376Z,99378.78
2023-01-13T07:50:53.482Z,99383.19
2023-01-13T07:53:20.913Z,99389.22
2023-01-13T07:55:49.556Z,99389.06
2023-01-13T07:58:16.578Z,99379.31
2023-01-13T08:00:43.591Z,99390.78
2023-01-13T08:03:10.625Z,99384.47
2023-01-13T08:05:37.695Z,99391.81
2023-01-13T08:08:04.913Z,99388.88
2023-01-13T08:10:32.410Z,99385.25
2023-01-13T08:13:22.289Z,99390.19
2023-01-13T08:15:50.847Z,99391.28
2023-01-13T08:18:20.929Z,99389.94
2023-01-13T08:20:48.780Z,99391.69
2023-01-13T08:23:16.255Z,99389.28
2023-01-13T08:25:43.213Z,99400.34
2023-01-13T08:28:11.760Z,99401.56
2023-01-13T08:30:38.788Z,99400.78
2023-01-13T08:33:07.973Z,99403.59
2023-01-13T08:35:44.369Z,99401.97
2023-01-13T08:38:11.610Z,99399.22
2023-01-13T08:40:39.748Z,99409.09
2023-01-13T08:43:06.880Z,99405.34
2023-01-13T08:45:36.103Z,99408.41
2023-01-13T08:48:03.956Z,99405.44
2023-01-13T08:50:30.996Z,99404.78
2023-01-13T08:52:57.995Z,99406.50
2023-01-13T08:55:24.972Z,99405.72
2023-01-13T08:57:53.102Z,99407.31
2023-01-13T09:00:24.245Z,99409.19
2023-01-13T09:02:53.023Z,99404.13
2023-01-13T09:05:20.110Z,99405.88
2023-01-13T09:07:47.043Z,99400.66
2023-01-13T09:10:14.053Z,99409.19
2023-01-13T09:13:02.301Z,99398.63
2023-01-13T09:15:29.397Z,99388.88
2023-01-13T09:18:01.766Z,99394.09
2023-01-13T09:20:28.699Z,99394.78
2023-01-13T09:22:55.623Z,99398.25
2023-01-13T09:25:22.671Z,99395.03
2023-01-13T09:27:49.608Z,99390.78
2023-01-13T09:30:17.260Z,99384.09
2023-01-13T09:32:44.308Z,99389.69
2023-01-13T09:35:12.917Z,99386.88
2023-01-13T09:37:41.207Z,99383.53
2023-01-13T09:40:15.293Z,99374.81
2023-01-13T09:43:05.640Z,99369.53
2023-01-13T09:45:39.769Z,99369.63
2023-01-13T09:48:13.303Z,99364.81
2023-01-13T09:50:55.829Z,99359.94
2023-01-13T09:53:30.761Z,99355.22
2023-01-13T09:55:58.367Z,99363.22
2023-01-13T09:58:25.537Z,99361.03
2023-01-13T10:01:09.491Z,99357.72
2023-01-13T10:03:36.740Z,99354.50
2023-01-13T10:06:14.008Z,99354.88
2023-01-13T10:08:42.853Z,99351.47
2023-01-13T10:11:33.732Z,99349.16
2023-01-13T10:14:02.530Z,99338.53
2023-01-13T10:16:42.263Z,99347.97
2023-01-13T10:19:18.686Z,99347.31
2023-01-13T10:22:07.854Z,99342.59
2023-01-13T10:24:55.399Z,99331.56
2023-01-13T10:27:29.168Z,99339.53
2023-01-13T10:29:56.230Z,99332.44
2023-01-13T10:32:23.276Z,99335.03
2023-01-13T10:34:51.648Z,99327.88
2023-01-13T10:37:28.658Z,99325.50
2023-01-13T10:39:57.093Z,99326.09
2023-01-13T10:42:28.521Z,99326.97
2023-01-13T10:44:57.401Z,99320.91
2023-01-13T10:47:26.765Z,99317.41
2023-01-13T10:50:22.929Z,99318.09
2023-01-13T10:53:01.308Z,99320.59
2023-01-13T10:55:30.645Z,99322.09
2023-01-13T10:58:00.033Z,99316.97
2023-01-13T11:00:29.514Z,99319.00
2023-01-13T11:03:17.338Z,99318.78
2023-01-13T11:05:53.262Z,99309.72
2023-01-13T11:08:23.987Z,99304.50
2023-01-13T11:10:53.833Z,99299.84
2023-01-13T11:13:28.179Z,99302.25
2023-01-13T11:16:03.521Z,99303.06
2023-01-13T11:18:35.332Z,99296.00
2023-01-13T11:21:07.187Z,99292.94
2023-01-13T11:23:39.752Z,99288.38
2023-01-13T11:26:13.567Z,99297.81
2023-01-13T11:28:50.696Z,99287.50
2023-01-13T11:31:22.800Z,99291.19
2023-01-13T11:33:56.391Z,99282.66
2023-01-13T11:36:26.586Z,99273.34
2023-01-13T11:38:59.819Z,99281.19
2023-01-13T11:41:43.824Z,99278.19
2023-01-13T11:44:18.103Z,99278.41
2023-01-13T11:46:47.941Z,99266.66
2023-01-13T11:49:26.165Z,99266.56
2023-01-13T11:51:59.444Z,99276.59
2023-01-13T11:54:47.154Z,99262.00
2023-01-13T11:57:54.048Z,99272.84
2023-01-13T12:00:35.664Z,99263.34
2023-01-13T12:03:20.328Z,99264.47
2023-01-13T12:05:59.812Z,99257.66
2023-01-13T12:08:47.125Z,99248.72
2023-01-13T12:11:22.911Z,99253.66
2023-01-13T12:14:06.757Z,99244.94
2023-01-13T12:16:35.049Z,99246.84
2023-01-13T12:19:28.163Z,99246.88
2023-01-13T12:22:08.089Z,99249.22
2023-01-13T12:24:41.663Z,99236.03
2023-01-13T12:27:15.886Z,99241.28
2023-01-13T12:29:44.354Z,99245.03
2023-01-13T12:32:14.486Z,99246.00
2023-01-13T12:34:56.328Z,99250.59
2023-01-13T12:37:30.465Z,99237.09
2023-01-13T12:40:23.623Z,99240.91
2023-01-13T12:43:16.840Z,99240.75
2023-01-13T12:45:43.921Z,99251.72
2023-01-13T12:48:46.315Z,99248.84
2023-01-13T12:51:24.197Z,99244.53
2023-01-13T12:53:51.680Z,99251.41
2023-01-13T12:56:34.868Z,99247.34
2023-01-13T12:59:38.827Z,99254.66
2023-01-13T13:02:27.797Z,99249.28
2023-01-13T13:04:56.717Z,99254.84
2023-01-13T13:07:33.888Z,99249.13
2023-01-13T13:10:04.699Z,99244.19
2023-01-13T13:13:16.162Z,99255.59
2023-01-13T13:15:43.797Z,99254.47
2023-01-13T13:18:30.394Z,99253.69
2023-01-13T13:21:02.367Z,99250.34
2023-01-13T13:23:40.301Z,99246.22
2023-01-13T13:26:31.007Z,99257.31
2023-01-13T13:29:38.101Z,99245.56
2023-01-13T13:32:35.703Z,99248.91
2023-01-13T13:35:51.914Z,99252.91
2023-01-13T13:38:52.753Z,99247.34
2023-01-13T13:41:40.612Z,99257.75
2023-01-13T13:44:33.838Z,99263.81
2023-01-13T13:47:03.470Z,99256.50
2023-01-13T13:49:41.271Z,99260.94
2023-01-13T13:52:18.253Z,99263.13
2023-01-13T13:54:49.055Z,99267.56
2023-01-13T13:57:18.875Z,99268.69
2023-01-13T13:59:46.955Z,99261.50
2023-01-13T14:02:19.717Z,99260.06
2023-01-13T14:04:46.703Z,99260.38
2023-01-13T14:07:20.963Z,99267.50
2023-01-13T14:09:52.735Z,99264.63
2023-01-13T14:12:21.924Z,99275.13
2023-01-13T14:14:49.782Z,99271.44
2023-01-13T14:17:23.857Z,99272.19
2023-01-13T14:19:58.231Z,99278.09
2023-01-13T14:22:26.671Z,99273.31
2023-01-13T14:24:57.573Z,99278.56
2023-01-13T14:27:27.601Z,99272.03
2023-01-13T14:29:55.785Z,99272.84
2023-01-13T14:32:26.576Z,99282.06
2023-01-13T14:34:53.644Z,99283.78
2023-01-13T14:37:31.495Z,99288.25
2023-01-13T14:39:58.517Z,99278.56
2023-01-13T14:42:27.630Z,99276.00
2023-01-13T14:44:56.336Z,99276.81
2023-01-13T14:47:27.945Z,99289.38
2023-01-13T14:50:03.166Z,99281.91
2023-01-13T14:52:34.612Z,99285.88
2023-01-13T14:55:24.880Z,99283.34
2023-01-13T14:57:52.430Z,99286.53
2023-01-13T15:00:25.333Z,99284.91
2023-01-13T15:03:07.668Z,99289.72
2023-01-13T15:05:39.982Z,99288.59
2023-01-13T15:08:31.761Z,99290.06
2023-01-13T15:11:00.443Z,99290.84
2023-01-13T15:13:36.195Z,99288.16
2023-01-13T15:16:05.784Z,99294.66
2023-01-13T15:18:34.381Z,99303.13
2023-01-13T15:21:01.506Z,99301.22
2023-01-13T15:23:29.818Z,99306.63
2023-01-13T15:25:59.378Z,99305.03
2023-01-13T15:28:27.635Z,99303.41
2023-01-13T15:31:00.618Z,99310.91
2023-01-13T15:33:27.796Z,99310.41
2023-01-13T15:35:56.161Z,99312.31
2023-01-13T15:38:24.334Z,99323.44
2023-01-13T15:40:53.136Z,99316.78
2023-01-13T15:43:40.424Z,99302.72
2023-01-13T15:46:31.950Z,99319.91
2023-01-13T15:49:02.612Z,99312.72
2023-01-13T15:51:29.627Z,99318.94
2023-01-13T15:53:56.627Z,99306.66
2023-01-13T15:56:26.701Z,99315.25
2023-01-13T15:58:54.019Z,99305.84
2023-01-13T16:01:22.087Z,99310.16
2023-01-13T16:03:52.168Z,99304.25
2023-01-13T16:06:21.310Z,99298.06
2023-01-13T16:08:48.249Z,99300.97
2023-01-13T16:11:15.750Z,99309.06
2023-01-13T16:13:44.102Z,99307.34
2023-01-13T16:16:19.085Z,99293.81
2023-01-13T16:18:46.237Z,99297.16
2023-01-13T16:21:14.204Z,99298.13
2023-01-13T16:23:41.614Z,99289.69
2023-01-13T16:26:18.941Z,99298.13
2023-01-13T16:28:47.587Z,99297.94
2023-01-13T16:31:22.745Z,99295.59
2023-01-13T16:33:50.094Z,99287.94
2023-01-13T16:36:20.114Z,99297.31
2023-01-13T16:38:48.060Z,99291.41
2023-01-13T16:41:15.172Z,99304.28
2023-01-13T16:43:42.308Z,99306.84
2023-01-13T16:46:22.975Z,99302.69
2023-01-13T16:48:50.667Z,99312.22
2023-01-13T16:51:17.795Z,99315.56
2023-01-13T16:53:45.437Z,99308.09
2023-01-13T16:56:27.978Z,99303.00
2023-01-13T16:58:56.658Z,99314.13
2023-01-13T17:01:26.829Z,99309.03
2023-01-13T17:03:54.936Z,99314.13
2023-01-13T17:06:25.321Z,99309.84
2023-01-13T17:08:53.630Z,99316.03
2023-01-13T17:11:21.002Z,99319.22
2023-01-13T17:13:48.025Z,99322.72
2023-01-13T17:16:20.575Z,99325.13
2023-01-13T17:18:49.227Z,99332.75
2023-01-13T17:21:16.855Z,99317.50
2023-01-13T17:23:44.113Z,99313.63
2023-01-13T17:26:27.517Z,99304.56
2023-01-13T17:28:54.621Z,99311.88
2023-01-13T17:31:21.640Z,99309.34
2023-01-13T17:33:49.972Z,99310.31
2023-01-13T17:36:19.954Z,99313.78
2023-01-13T17:38:46.964Z,99311.38
2023-01-13T17:41:13.969Z,99311.38
2023-01-13T17:43:41.027Z,99307.25
2023-01-13T17:46:09.142Z,99299.00
2023-01-13T17:48:36.589Z,99305.00
2023-01-13T17:51:08.771Z,99301.03
2023-01-13T17:53:35.761Z,99302.75
2023-01-13T17:56:02.669Z,99305.47
2023-01-13T17:58:32.770Z,99303.38
2023-01-13T18:00:59.773Z,99296.03
2023-01-13T18:03:26.799Z,99296.19
2023-01-13T18:05:53.776Z,99301.28
2023-01-13T18:08:23.641Z,99297.44
2023-01-13T18:10:52.200Z,99288.34
2023-01-13T18:13:19.391Z,99293.91
2023-01-13T18:15:46.344Z,99288.31
2023-01-13T18:18:13.313Z,99296.38
2023-01-13T18:20:58.804Z,99292.69
2023-01-13T18:23:45.923Z,99298.88
2023-01-13T18:26:35.707Z,99289.16
2023-01-13T18:29:03.646Z,99284.50
2023-01-13T18:31:30.846Z,99288.28
2023-01-13T18:33:58.038Z,99287.00
2023-01-13T18:36:25.258Z,99289.06
2023-01-13T18:38:53.680Z,99285.50
2023-01-13T18:41:39.396Z,99286.09
2023-01-13T18:44:06.123Z,99290.94
2023-01-13T18:46:33.457Z,99288.34
2023-01-13T18:49:00.474Z,99289.44
2023-01-13T18:51:27.806Z,99287.84
2023-01-13T18:53:56.864Z,99290.66
2023-01-13T18:56:24.335Z,99278.25
2023-01-13T18:58:53.723Z,99276.81
2023-01-13T19:01:26.246Z,99292.47
2023-01-13T19:03:57.594Z,99293.56
2023-01-13T19:06:27.760Z,99285.56
2023-01-13T19:08:58.762Z,99283.16
2023-01-13T19:11:26.311Z,99282.69
2023-01-13T19:13:53.787Z,99285.50
2023-01-13T19:16:24.764Z,99287.50
2023-01-13T19:18:52.432Z,99292.72
2023-01-13T19:21:20.023Z,99284.19
2023-01-13T19:23:47.055Z,99287.94
2023-01-13T19:26:16.830Z,99286.50
2023-01-13T19:28:44.576Z,99286.00
2023-01-13T19:31:17.379Z,99293.06
2023-01-13T19:33:44.488Z,99285.31
2023-01-13T19:36:11.847Z,99282.78
2023-01-13T19:38:39.215Z,99283.06
2023-01-13T19:41:28.822Z,99293.06
2023-01-13T19:44:17.150Z,99287.38
2023-01-13T19:46:45.441Z,99279.91
2023-01-13T19:49:12.999Z,99280.38
2023-01-13T19:51:40.137Z,99284.38
2023-01-13T19:54:07.424Z,99286.78
2023-01-13T19:56:34.810Z,99291.84
2023-01-13T19:59:03.919Z,99284.09
2023-01-13T20:01:35.208Z,99279.69
2023-01-13T20:04:08.590Z,99275.38
2023-01-13T20:06:37.864Z,99277.00
2023-01-13T20:09:05.279Z,99279.53
2023-01-13T20:11:33.630Z,99268.59
2023-01-13T20:14:01.725Z,99269.09
2023-01-13T20:16:32.921Z,99283.88
2023-01-13T20:19:00.583Z,99275.97
2023-01-13T20:21:32.166Z,99276.50
2023-01-13T20:23:59.867Z,99268.75
2023-01-13T20:26:27.628Z,99276.22
2023-01-13T20:28:54.974Z,99269.25
2023-01-13T20:31:22.894Z,99277.81
2023-01-13T20:33:51.647Z,99280.22
2023-01-13T20:36:26.438Z,99265.63
2023-01-13T20:38:58.007Z,99263.72
2023-01-13T20:41:44.176Z,99264.03
2023-01-13T20:44:11.765Z,99265.63
2023-01-13T20:46:39.200Z,99262.28
2023-01-13T20:49:10.612Z,99276.72
2023-01-13T20:51:38.253Z,99264.97
2023-01-13T20:54:06.145Z,99273.53
2023-01-13T20:56:33.342Z,99269.09
2023-01-13T20:59:00.356Z,99276.22
2023-01-13T21:01:32.063Z,99275.56
2023-01-13T21:04:00.262Z,99277.16
2023-01-13T21:06:29.742Z,99282.06
2023-01-13T21:08:58.643Z,99285.44
2023-01-13T21:11:45.883Z,99273.53
2023-01-13T21:14:34.748Z,99275.28
2023-01-13T21:17:01.996Z,99271.16
2023-01-13T21:19:29.451Z,99269.53
2023-01-13T21:21:58.384Z,99267.94
2023-01-13T21:24:25.854Z,99262.72
2023-01-13T21:27:02.001Z,99261.00
2023-01-13T21:29:29.262Z,99250.69
2023-01-13T21:31:56.674Z,99250.03
2023-01-13T21:34:23.611Z,99251.63
2023-01-13T21:36:50.591Z,99259.91
2023-01-13T21:39:19.057Z,99252.13
2023-01-13T21:42:04.817Z,99251.19
2023-01-13T21:44:50.115Z,99249.44
2023-01-13T21:47:36.973Z,99252.94
2023-01-13T21:50:06.499Z,99247.88
2023-01-13T21:52:33.715Z,99250.53
2023-01-13T21:55:17.205Z,99242.94
2023-01-13T21:57:44.889Z,99249.44
2023-01-13T22:00:12.886Z,99242.47
2023-01-13T22:02:39.898Z,99243.81
2023-01-13T22:05:09.426Z,99236.19
2023-01-13T22:07:37.853Z,99241.09
2023-01-13T22:10:11.316Z,99247.78
2023-01-13T22:12:38.284Z,99239.34
2023-01-13T22:15:06.134Z,99237.63
2023-01-13T22:17:33.207Z,99249.38
2023-01-13T22:20:01.363Z,99238.72
2023-01-13T22:22:29.167Z,99239.28
2023-01-13T22:24:56.191Z,99230.25
2023-01-13T22:27:26.395Z,99226.22
2023-01-13T22:29:53.563Z,99231.31
2023-01-13T22:32:21.455Z,99232.78
2023-01-13T22:34:48.547Z,99229.63
2023-01-13T22:37:15.703Z,99232.69
2023-01-13T22:39:45.703Z,99228.25
2023-01-13T22:42:12.739Z,99227.31
2023-01-13T22:44:41.043Z,99225.28
2023-01-13T22:47:08.613Z,99219.28
2023-01-13T22:49:35.643Z,99225.13
2023-01-13T22:52:02.636Z,99220.19
2023-01-13T22:54:30.750Z,99222.72
2023-01-13T22:56:57.719Z,99214.47
2023-01-13T22:59:25.422Z,99214.34
2023-01-13T23:01:54.062Z,99208.59
2023-01-13T23:04:21.100Z,99210.63
2023-01-13T23:06:48.036Z,99211.72
2023-01-13T23:09:18.132Z,99215.88
2023-01-13T23:11:47.707Z,99215.88
2023-01-13T23:14:14.832Z,99213.47
2023-01-13T23:16:42.880Z,99215.88
2023-01-13T23:19:13.943Z,99203.81
2023-01-13T23:21:41.194Z,99198.88
2023-01-13T23:24:09.407Z,99202.22
2023-01-13T23:26:36.970Z,99201.41
2023-01-13T23:29:07.099Z,99206.34
2023-01-13T23:31:34.382Z,99202.84
2023-01-13T23:34:01.582Z,99206.06
2023-01-13T23:36:30.654Z,99202.41
2023-01-13T23:38:59.366Z,99199.25
2023-01-13T23:41:28.482Z,99199.09
2023-01-13T23:43:57.562Z,99198.00
2023-01-13T23:46:25.621Z,99203.84
2023-01-13T23:48:52.700Z,99198.59
2023-01-13T23:51:22.543Z,99203.00
2023-01-13T23:53:51.251Z,99211.28
2023-01-13T23:56:20.554Z,99204.75
2023-01-13T23:58:48.335Z,99213.31
